sensor_id;sensor_type;location;lat;lon;timestamp;pressure;altitude;pressure_sealevel;temperature;humidity
37068;BME280;22982;42.848;25.468;2023-07-20T00:05:13;96116.78;;;22.53;95.72
37068;BME280;22982;42.848;25.468;2023-07-20T00:10:16;96099.31;;;22.34;92.45
37068;BME280;22982;42.848;25.468;2023-07-20T00:15:19;96084.44;;;22.40;91.74
37068;BME280;22982;42.848;25.468;2023-07-20T00:20:23;96068.97;;;22.10;92.51
37068;BME280;22982;42.848;25.468;2023-07-20T00:25:27;96040.09;;;22.06;89.74
37068;BME280;22982;42.848;25.468;2023-07-20T00:30:30;96028.25;;;22.08;93.31
37068;BME280;22982;42.848;25.468;2023-07-20T00:35:32;96007.25;;;21.97;92.00
37068;BME280;22982;42.848;25.468;2023-07-20T00:40:39;96009.25;;;21.95;93.15
37068;BME280;22982;42.848;25.468;2023-07-20T00:45:42;95994.13;;;21.79;94.93
37068;BME280;22982;42.848;25.468;2023-07-20T00:50:46;95978.25;;;21.77;97.35
37068;BME280;22982;42.848;25.468;2023-07-20T00:55:50;95962.78;;;21.56;100.00
37068;BME280;22982;42.848;25.468;2023-07-20T01:00:53;95937.72;;;20.24;100.00
37068;BME280;22982;42.848;25.468;2023-07-20T01:06:14;95821.34;;;19.58;100.00
37068;BME280;22982;42.848;25.468;2023-07-20T01:16:53;95798.56;;;18.50;100.00
37068;BME280;22982;42.848;25.468;2023-07-20T01:22:06;95829.94;;;18.37;100.00
37068;BME280;22982;42.848;25.468;2023-07-20T01:28:04;95853.31;;;18.51;100.00
37068;BME280;22982;42.848;25.468;2023-07-20T01:32:42;95816.06;;;18.25;100.00
37068;BME280;22982;42.848;25.468;2023-07-20T01:37:46;95798.03;;;18.29;100.00
37068;BME280;22982;42.848;25.468;2023-07-20T01:42:49;95797.25;;;18.36;100.00
37068;BME280;22982;42.848;25.468;2023-07-20T01:47:54;95772.31;;;18.11;100.00
37068;BME280;22982;42.848;25.468;2023-07-20T01:52:56;95787.63;;;18.17;100.00
37068;BME280;22982;42.848;25.468;2023-07-20T01:57:59;95772.78;;;18.07;100.00
37068;BME280;22982;42.848;25.468;2023-07-20T02:03:03;95760.75;;;18.12;100.00
37068;BME280;22982;42.848;25.468;2023-07-20T02:08:05;95744.94;;;18.29;100.00
37068;BME280;22982;42.848;25.468;2023-07-20T02:13:08;95739.88;;;18.17;100.00
37068;BME280;22982;42.848;25.468;2023-07-20T02:18:10;95744.28;;;18.27;100.00
37068;BME280;22982;42.848;25.468;2023-07-20T02:23:12;95728.56;;;18.15;100.00
37068;BME280;22982;42.848;25.468;2023-07-20T02:28:15;95740.91;;;18.25;100.00
37068;BME280;22982;42.848;25.468;2023-07-20T02:33:18;95761.16;;;18.44;100.00
37068;BME280;22982;42.848;25.468;2023-07-20T02:38:21;95768.28;;;18.43;100.00
37068;BME280;22982;42.848;25.468;2023-07-20T02:43:24;95754.56;;;18.30;100.00
37068;BME280;22982;42.848;25.468;2023-07-20T02:48:27;95761.69;;;18.47;100.00
37068;BME280;22982;42.848;25.468;2023-07-20T02:53:29;95767.63;;;18.41;100.00
37068;BME280;22982;42.848;25.468;2023-07-20T02:58:35;95769.66;;;18.47;100.00
37068;BME280;22982;42.848;25.468;2023-07-20T03:03:42;95753.59;;;18.31;100.00
37068;BME280;22982;42.848;25.468;2023-07-20T03:08:48;95773.81;;;18.32;100.00
37068;BME280;22982;42.848;25.468;2023-07-20T03:13:54;95773.28;;;18.28;100.00
37068;BME280;22982;42.848;25.468;2023-07-20T03:18:57;95762.09;;;17.98;100.00
37068;BME280;22982;42.848;25.468;2023-07-20T03:24:00;95762.38;;;18.13;100.00
37068;BME280;22982;42.848;25.468;2023-07-20T03:29:04;95766.94;;;18.03;100.00
37068;BME280;22982;42.848;25.468;2023-07-20T03:34:08;95770.97;;;18.07;100.00
37068;BME280;22982;42.848;25.468;2023-07-20T03:39:11;95775.66;;;18.13;100.00
37068;BME280;22982;42.848;25.468;2023-07-20T03:44:13;95791.88;;;18.28;100.00
37068;BME280;22982;42.848;25.468;2023-07-20T03:49:16;95795.38;;;18.29;100.00
37068;BME280;22982;42.848;25.468;2023-07-20T03:54:19;95786.34;;;18.22;100.00
37068;BME280;22982;42.848;25.468;2023-07-20T03:59:22;95782.78;;;18.31;100.00
37068;BME280;22982;42.848;25.468;2023-07-20T04:04:25;95804.97;;;18.48;100.00
37068;BME280;22982;42.848;25.468;2023-07-20T04:09:27;95798.97;;;18.64;100.00
37068;BME280;22982;42.848;25.468;2023-07-20T04:21:28;95807.75;;;19.26;100.00
37068;BME280;22982;42.848;25.468;2023-07-20T04:26:31;95796.47;;;19.32;100.00
37068;BME280;22982;42.848;25.468;2023-07-20T04:31:33;95804.50;;;19.49;100.00
37068;BME280;22982;42.848;25.468;2023-07-20T04:36:38;95798.94;;;19.68;100.00
37068;BME280;22982;42.848;25.468;2023-07-20T04:48:16;95780.75;;;19.90;100.00
37068;BME280;22982;42.848;25.468;2023-07-20T04:53:25;95804.03;;;19.88;100.00
37068;BME280;22982;42.848;25.468;2023-07-20T04:58:28;95794.28;;;20.13;100.00
37068;BME280;22982;42.848;25.468;2023-07-20T05:03:31;95779.38;;;20.78;100.00
37068;BME280;22982;42.848;25.468;2023-07-20T05:08:34;95778.28;;;21.76;100.00
37068;BME280;22982;42.848;25.468;2023-07-20T05:13:37;95761.03;;;22.64;100.00
37068;BME280;22982;42.848;25.468;2023-07-20T05:18:39;95756.25;;;23.12;100.00
37068;BME280;22982;42.848;25.468;2023-07-20T05:23:42;95756.91;;;23.74;100.00
37068;BME280;22982;42.848;25.468;2023-07-20T05:28:47;95744.88;;;24.00;100.00
37068;BME280;22982;42.848;25.468;2023-07-20T05:33:49;95714.63;;;24.71;100.00
37068;BME280;22982;42.848;25.468;2023-07-20T05:38:52;95726.66;;;25.10;100.00
37068;BME280;22982;42.848;25.468;2023-07-20T05:43:54;95711.03;;;25.55;100.00
37068;BME280;22982;42.848;25.468;2023-07-20T05:48:58;95699.94;;;25.78;100.00
37068;BME280;22982;42.848;25.468;2023-07-20T06:13:44;95687.59;;;28.02;89.08
37068;BME280;22982;42.848;25.468;2023-07-20T06:18:47;95683.78;;;28.42;87.44
37068;BME280;22982;42.848;25.468;2023-07-20T06:23:50;95683.03;;;28.60;84.87
37068;BME280;22982;42.848;25.468;2023-07-20T06:28:53;95676.56;;;28.93;86.99
37068;BME280;22982;42.848;25.468;2023-07-20T06:33:55;95672.56;;;29.76;82.28
37068;BME280;22982;42.848;25.468;2023-07-20T06:38:58;95676.81;;;30.68;74.95
37068;BME280;22982;42.848;25.468;2023-07-20T06:44:04;95667.94;;;34.14;54.83
37068;BME280;22982;42.848;25.468;2023-07-20T06:49:07;95677.00;;;36.64;44.82
37068;BME280;22982;42.848;25.468;2023-07-20T07:00:58;95640.81;;;39.47;38.33
37068;BME280;22982;42.848;25.468;2023-07-20T07:06:00;95647.91;;;39.72;37.44
37068;BME280;22982;42.848;25.468;2023-07-20T07:11:04;95663.41;;;39.63;38.28
37068;BME280;22982;42.848;25.468;2023-07-20T07:16:07;95671.94;;;39.80;37.33
37068;BME280;22982;42.848;25.468;2023-07-20T07:21:11;95681.53;;;39.00;39.34
37068;BME280;22982;42.848;25.468;2023-07-20T07:26:13;95678.47;;;38.38;41.36
37068;BME280;22982;42.848;25.468;2023-07-20T07:31:16;95682.75;;;37.14;38.38
37068;BME280;22982;42.848;25.468;2023-07-20T07:36:19;95704.97;;;35.45;39.33
37068;BME280;22982;42.848;25.468;2023-07-20T07:41:21;95706.97;;;36.18;41.49
37068;BME280;22982;42.848;25.468;2023-07-20T07:46:25;95705.75;;;35.83;40.58
37068;BME280;22982;42.848;25.468;2023-07-20T07:51:27;95711.13;;;36.36;41.31
37068;BME280;22982;42.848;25.468;2023-07-20T07:56:30;95725.44;;;35.95;41.10
37068;BME280;22982;42.848;25.468;2023-07-20T08:01:36;95725.25;;;36.22;37.50
37068;BME280;22982;42.848;25.468;2023-07-20T08:06:39;95715.13;;;36.18;35.99
37068;BME280;22982;42.848;25.468;2023-07-20T08:11:41;95735.97;;;35.71;37.23
37068;BME280;22982;42.848;25.468;2023-07-20T08:16:44;95731.41;;;35.87;34.08
37068;BME280;22982;42.848;25.468;2023-07-20T08:21:47;95741.44;;;36.60;32.84
37068;BME280;22982;42.848;25.468;2023-07-20T08:26:50;95740.63;;;36.54;33.22
37068;BME280;22982;42.848;25.468;2023-07-20T08:31:53;95761.41;;;35.87;34.45
37068;BME280;22982;42.848;25.468;2023-07-20T08:36:56;95761.44;;;35.92;35.36
37068;BME280;22982;42.848;25.468;2023-07-20T08:42:01;95751.59;;;35.91;34.14
37068;BME280;22982;42.848;25.468;2023-07-20T08:47:08;95763.63;;;35.95;34.33
37068;BME280;22982;42.848;25.468;2023-07-20T08:52:11;95741.47;;;35.87;35.19
37068;BME280;22982;42.848;25.468;2023-07-20T08:57:14;95737.47;;;35.99;35.22
37068;BME280;22982;42.848;25.468;2023-07-20T09:02:18;95756.00;;;36.02;34.87
37068;BME280;22982;42.848;25.468;2023-07-20T09:07:21;95761.03;;;36.31;34.35
37068;BME280;22982;42.848;25.468;2023-07-20T09:12:25;95771.06;;;36.15;33.62
37068;BME280;22982;42.848;25.468;2023-07-20T09:24:33;95775.13;;;35.55;36.50
37068;BME280;22982;42.848;25.468;2023-07-20T09:29:50;95750.06;;;36.11;35.51
37068;BME280;22982;42.848;25.468;2023-07-20T09:34:52;95738.66;;;36.24;35.84
37068;BME280;22982;42.848;25.468;2023-07-20T09:39:55;95753.53;;;35.91;36.60
37068;BME280;22982;42.848;25.468;2023-07-20T09:45:00;95741.94;;;36.31;36.00
37068;BME280;22982;42.848;25.468;2023-07-20T09:50:05;95731.03;;;36.36;37.10
37068;BME280;22982;42.848;25.468;2023-07-20T09:55:15;95728.22;;;35.53;36.95
37068;BME280;22982;42.848;25.468;2023-07-20T10:00:19;95718.53;;;34.65;37.65
37068;BME280;22982;42.848;25.468;2023-07-20T10:12:16;95720.03;;;34.23;37.60
37068;BME280;22982;42.848;25.468;2023-07-20T10:17:20;95728.09;;;34.67;36.42
37068;BME280;22982;42.848;25.468;2023-07-20T10:22:27;95703.97;;;35.56;34.74
37068;BME280;22982;42.848;25.468;2023-07-20T10:27:38;95697.81;;;35.23;36.04
37068;BME280;22982;42.848;25.468;2023-07-20T10:32:42;95702.88;;;34.77;36.79
37068;BME280;22982;42.848;25.468;2023-07-20T10:37:52;95691.88;;;35.37;36.44
37068;BME280;22982;42.848;25.468;2023-07-20T10:43:05;95701.28;;;34.81;37.33
37068;BME280;22982;42.848;25.468;2023-07-20T10:48:18;95712.91;;;34.72;36.48
37068;BME280;22982;42.848;25.468;2023-07-20T10:53:21;95701.28;;;34.81;36.43
37068;BME280;22982;42.848;25.468;2023-07-20T10:58:24;95696.03;;;35.12;35.63
37068;BME280;22982;42.848;25.468;2023-07-20T11:03:32;95699.44;;;35.24;34.85
37068;BME280;22982;42.848;25.468;2023-07-20T11:08:40;95705.59;;;34.77;36.68
37068;BME280;22982;42.848;25.468;2023-07-20T11:18:59;95685.03;;;35.29;37.06
37068;BME280;22982;42.848;25.468;2023-07-20T11:24:03;95676.38;;;35.47;36.06
37068;BME280;22982;42.848;25.468;2023-07-20T11:29:06;95661.63;;;36.12;34.59
37068;BME280;22982;42.848;25.468;2023-07-20T11:34:30;95660.91;;;35.58;35.30
37068;BME280;22982;42.848;25.468;2023-07-20T11:46:20;95635.47;;;37.08;32.53
37068;BME280;22982;42.848;25.468;2023-07-20T11:51:24;95637.50;;;38.23;29.38
37068;BME280;22982;42.848;25.468;2023-07-20T11:56:27;95645.44;;;38.19;29.97
37068;BME280;22982;42.848;25.468;2023-07-20T12:01:30;95607.88;;;39.90;26.26
37068;BME280;22982;42.848;25.468;2023-07-20T12:06:34;95612.22;;;40.15;26.57
37068;BME280;22982;42.848;25.468;2023-07-20T12:11:38;95603.56;;;37.69;29.76
37068;BME280;22982;42.848;25.468;2023-07-20T12:16:41;95592.56;;;35.91;32.92
37068;BME280;22982;42.848;25.468;2023-07-20T12:21:43;95595.03;;;34.76;34.26
37068;BME280;22982;42.848;25.468;2023-07-20T12:26:46;95583.06;;;33.36;39.33
37068;BME280;22982;42.848;25.468;2023-07-20T12:31:49;95606.41;;;32.42;42.11
37068;BME280;22982;42.848;25.468;2023-07-20T12:36:51;95599.56;;;31.36;45.68
37068;BME280;22982;42.848;25.468;2023-07-20T12:41:54;95596.66;;;31.26;47.91
37068;BME280;22982;42.848;25.468;2023-07-20T12:46:56;95594.34;;;30.70;45.75
37068;BME280;22982;42.848;25.468;2023-07-20T12:51:59;95575.72;;;31.21;44.93
37068;BME280;22982;42.848;25.468;2023-07-20T12:57:02;95539.28;;;31.70;43.44
37068;BME280;22982;42.848;25.468;2023-07-20T13:02:08;95550.19;;;32.20;42.38
37068;BME280;22982;42.848;25.468;2023-07-20T13:07:11;95540.31;;;31.40;44.94
37068;BME280;22982;42.848;25.468;2023-07-20T13:12:16;95560.97;;;31.70;45.93
37068;BME280;22982;42.848;25.468;2023-07-20T13:17:20;95537.56;;;31.97;44.84
37068;BME280;22982;42.848;25.468;2023-07-20T13:22:22;95553.84;;;32.48;43.43
37068;BME280;22982;42.848;25.468;2023-07-20T13:32:50;95531.78;;;32.22;44.17
37068;BME280;22982;42.848;25.468;2023-07-20T13:37:55;95529.13;;;32.28;43.43
37068;BME280;22982;42.848;25.468;2023-07-20T13:42:58;95530.47;;;32.08;43.86
37068;BME280;22982;42.848;25.468;2023-07-20T13:48:01;95529.63;;;31.62;46.30
37068;BME280;22982;42.848;25.468;2023-07-20T13:53:07;95509.78;;;31.90;45.58
37068;BME280;22982;42.848;25.468;2023-07-20T13:58:13;95509.38;;;31.81;45.37
37068;BME280;22982;42.848;25.468;2023-07-20T14:03:34;95513.41;;;32.47;43.60
37068;BME280;22982;42.848;25.468;2023-07-20T14:08:38;95509.72;;;32.53;44.52
37068;BME280;22982;42.848;25.468;2023-07-20T14:13:44;95524.97;;;31.57;46.53
37068;BME280;22982;42.848;25.468;2023-07-20T14:18:49;95523.03;;;31.29;52.97
37068;BME280;22982;42.848;25.468;2023-07-20T14:23:52;95511.66;;;31.73;50.83
37068;BME280;22982;42.848;25.468;2023-07-20T14:28:57;95515.75;;;31.58;47.92
37068;BME280;22982;42.848;25.468;2023-07-20T14:34:01;95509.28;;;31.59;47.79
37068;BME280;22982;42.848;25.468;2023-07-20T14:39:03;95522.03;;;31.76;48.56
37068;BME280;22982;42.848;25.468;2023-07-20T14:44:07;95501.19;;;31.47;50.75
37068;BME280;22982;42.848;25.468;2023-07-20T15:07:36;95522.47;;;31.27;56.05
37068;BME280;22982;42.848;25.468;2023-07-20T15:12:39;95519.75;;;31.27;51.89
37068;BME280;22982;42.848;25.468;2023-07-20T15:17:43;95518.25;;;31.19;54.30
37068;BME280;22982;42.848;25.468;2023-07-20T15:22:47;95515.50;;;31.02;53.00
37068;BME280;22982;42.848;25.468;2023-07-20T15:27:50;95524.41;;;30.91;52.59
37068;BME280;22982;42.848;25.468;2023-07-20T15:32:55;95542.13;;;30.58;61.90
37068;BME280;22982;42.848;25.468;2023-07-20T15:38:01;95522.75;;;30.38;61.10
37068;BME280;22982;42.848;25.468;2023-07-20T15:43:04;95529.75;;;30.15;68.45
37068;BME280;22982;42.848;25.468;2023-07-20T15:48:22;95558.34;;;30.34;60.67
37068;BME280;22982;42.848;25.468;2023-07-20T15:53:25;95568.59;;;30.56;60.11
37068;BME280;22982;42.848;25.468;2023-07-20T15:58:27;95551.63;;;30.61;59.39
37068;BME280;22982;42.848;25.468;2023-07-20T16:03:30;95568.34;;;30.81;52.03
37068;BME280;22982;42.848;25.468;2023-07-20T16:08:36;95583.06;;;30.73;53.36
37068;BME280;22982;42.848;25.468;2023-07-20T16:13:38;95571.41;;;30.61;56.62
37068;BME280;22982;42.848;25.468;2023-07-20T16:18:41;95588.59;;;30.67;52.61
37068;BME280;22982;42.848;25.468;2023-07-20T16:23:44;95582.47;;;30.48;52.90
37068;BME280;22982;42.848;25.468;2023-07-20T16:35:44;95594.88;;;30.25;55.01
37068;BME280;22982;42.848;25.468;2023-07-20T16:40:50;95603.75;;;29.90;56.63
37068;BME280;22982;42.848;25.468;2023-07-20T16:46:02;95608.25;;;29.48;61.86
37068;BME280;22982;42.848;25.468;2023-07-20T16:51:24;95620.50;;;29.32;59.74
37068;BME280;22982;42.848;25.468;2023-07-20T16:56:29;95629.88;;;29.11;59.49
37068;BME280;22982;42.848;25.468;2023-07-20T17:01:31;95639.75;;;28.98;59.58
37068;BME280;22982;42.848;25.468;2023-07-20T17:06:35;95663.38;;;28.53;62.48
37068;BME280;22982;42.848;25.468;2023-07-20T17:11:38;95673.38;;;28.45;73.35
37068;BME280;22982;42.848;25.468;2023-07-20T17:16:41;95647.56;;;28.06;62.37
37068;BME280;22982;42.848;25.468;2023-07-20T17:21:44;95667.78;;;27.77;69.69
37068;BME280;22982;42.848;25.468;2023-07-20T17:26:47;95660.41;;;27.59;69.75
37068;BME280;22982;42.848;25.468;2023-07-20T17:32:10;95670.88;;;27.35;75.45
37068;BME280;22982;42.848;25.468;2023-07-20T17:37:12;95673.22;;;26.98;80.16
37068;BME280;22982;42.848;25.468;2023-07-20T17:42:19;95670.34;;;26.60;84.16
37068;BME280;22982;42.848;25.468;2023-07-20T17:47:24;95647.94;;;25.92;93.38
37068;BME280;22982;42.848;25.468;2023-07-20T17:52:28;95669.78;;;25.69;98.83
37068;BME280;22982;42.848;25.468;2023-07-20T17:57:30;95673.81;;;25.45;99.46
37068;BME280;22982;42.848;25.468;2023-07-20T18:02:33;95682.03;;;25.30;100.00
37068;BME280;22982;42.848;25.468;2023-07-20T18:07:36;95681.47;;;25.07;100.00
37068;BME280;22982;42.848;25.468;2023-07-20T18:12:39;95688.16;;;24.61;100.00
37068;BME280;22982;42.848;25.468;2023-07-20T18:17:43;95687.75;;;24.14;100.00
37068;BME280;22982;42.848;25.468;2023-07-20T18:22:45;95698.94;;;23.81;100.00
37068;BME280;22982;42.848;25.468;2023-07-20T18:27:48;95709.91;;;23.72;100.00
37068;BME280;22982;42.848;25.468;2023-07-20T18:32:50;95721.84;;;23.39;100.00
37068;BME280;22982;42.848;25.468;2023-07-20T18:37:54;95732.84;;;23.15;100.00
37068;BME280;22982;42.848;25.468;2023-07-20T18:42:56;95759.44;;;22.93;100.00
37068;BME280;22982;42.848;25.468;2023-07-20T18:47:59;95761.53;;;22.45;100.00
37068;BME280;22982;42.848;25.468;2023-07-20T18:53:02;95769.66;;;22.28;100.00
37068;BME280;22982;42.848;25.468;2023-07-20T18:58:05;95781.66;;;22.01;100.00
37068;BME280;22982;42.848;25.468;2023-07-20T19:03:09;95791.75;;;22.14;100.00
37068;BME280;22982;42.848;25.468;2023-07-20T19:08:11;95789.59;;;22.09;100.00
37068;BME280;22982;42.848;25.468;2023-07-20T19:13:14;95793.97;;;21.79;100.00
37068;BME280;22982;42.848;25.468;2023-07-20T19:18:17;95801.34;;;21.69;100.00
37068;BME280;22982;42.848;25.468;2023-07-20T19:23:20;95810.16;;;21.69;100.00
37068;BME280;22982;42.848;25.468;2023-07-20T19:28:23;95831.41;;;21.46;100.00
37068;BME280;22982;42.848;25.468;2023-07-20T19:33:25;95817.28;;;21.21;100.00
37068;BME280;22982;42.848;25.468;2023-07-20T19:38:28;95839.50;;;20.89;100.00
37068;BME280;22982;42.848;25.468;2023-07-20T19:43:32;95850.16;;;20.89;100.00
37068;BME280;22982;42.848;25.468;2023-07-20T19:48:34;95852.16;;;21.03;100.00
37068;BME280;22982;42.848;25.468;2023-07-20T19:53:39;95840.31;;;20.81;100.00
37068;BME280;22982;42.848;25.468;2023-07-20T19:59:01;95866.13;;;20.80;100.00
37068;BME280;22982;42.848;25.468;2023-07-20T20:04:05;95863.41;;;20.48;100.00
37068;BME280;22982;42.848;25.468;2023-07-20T20:09:10;95865.44;;;20.62;100.00
37068;BME280;22982;42.848;25.468;2023-07-20T20:14:16;95866.13;;;20.80;100.00
37068;BME280;22982;42.848;25.468;2023-07-20T20:19:18;95864.91;;;20.58;100.00
37068;BME280;22982;42.848;25.468;2023-07-20T20:24:21;95876.78;;;20.64;100.00
37068;BME280;22982;42.848;25.468;2023-07-20T20:29:24;95900.44;;;20.83;100.00
37068;BME280;22982;42.848;25.468;2023-07-20T20:34:27;95895.19;;;20.57;100.00
37068;BME280;22982;42.848;25.468;2023-07-20T20:39:30;95895.94;;;20.68;100.00
37068;BME280;22982;42.848;25.468;2023-07-20T20:44:36;95909.75;;;20.71;100.00
37068;BME280;22982;42.848;25.468;2023-07-20T20:49:41;95900.44;;;20.67;100.00
37068;BME280;22982;42.848;25.468;2023-07-20T20:54:47;95917.56;;;20.64;100.00
37068;BME280;22982;42.848;25.468;2023-07-20T20:59:50;95932.41;;;20.67;100.00
37068;BME280;22982;42.848;25.468;2023-07-20T21:04:53;95927.69;;;20.61;100.00
37068;BME280;22982;42.848;25.468;2023-07-20T21:16:41;95924.94;;;20.28;100.00
37068;BME280;22982;42.848;25.468;2023-07-20T21:21:44;95924.06;;;20.19;100.00
37068;BME280;22982;42.848;25.468;2023-07-20T21:26:46;95921.84;;;20.06;100.00
37068;BME280;22982;42.848;25.468;2023-07-20T21:31:48;95931.09;;;19.94;100.00
37068;BME280;22982;42.848;25.468;2023-07-20T21:36:51;95955.09;;;20.02;100.00
37068;BME280;22982;42.848;25.468;2023-07-20T21:41:53;95955.31;;;19.83;100.00
37068;BME280;22982;42.848;25.468;2023-07-20T21:46:55;95951.34;;;19.87;100.00
37068;BME280;22982;42.848;25.468;2023-07-20T21:51:58;95949.56;;;19.69;100.00
37068;BME280;22982;42.848;25.468;2023-07-20T21:57:00;95967.97;;;19.81;100.00
37068;BME280;22982;42.848;25.468;2023-07-20T22:02:03;95956.44;;;19.54;100.00
37068;BME280;22982;42.848;25.468;2023-07-20T22:07:06;95946.97;;;19.51;100.00
37068;BME280;22982;42.848;25.468;2023-07-20T22:12:15;95940.00;;;19.32;100.00
37068;BME280;22982;42.848;25.468;2023-07-20T22:17:24;95950.66;;;19.32;100.00
37068;BME280;22982;42.848;25.468;2023-07-20T22:22:36;95904.66;;;18.78;100.00
37068;BME280;22982;42.848;25.468;2023-07-20T22:27:38;95936.31;;;19.07;100.00
37068;BME280;22982;42.848;25.468;2023-07-20T22:32:42;95960.25;;;19.07;100.00
37068;BME280;22982;42.848;25.468;2023-07-20T22:37:47;95963.41;;;19.11;100.00
37068;BME280;22982;42.848;25.468;2023-07-20T22:42:52;95954.09;;;19.07;100.00
37068;BME280;22982;42.848;25.468;2023-07-20T22:47:54;95978.16;;;19.05;100.00
37068;BME280;22982;42.848;25.468;2023-07-20T22:52:57;95984.25;;;19.16;100.00
37068;BME280;22982;42.848;25.468;2023-07-20T22:58:00;95994.88;;;19.16;100.00
37068;BME280;22982;42.848;25.468;2023-07-20T23:03:02;95992.97;;;19.08;100.00
37068;BME280;22982;42.848;25.468;2023-07-20T23:08:06;95971.88;;;18.88;100.00
37068;BME280;22982;42.848;25.468;2023-07-20T23:13:08;95983.84;;;18.92;100.00
37068;BME280;22982;42.848;25.468;2023-07-20T23:18:11;95984.25;;;18.98;100.00
37068;BME280;22982;42.848;25.468;2023-07-20T23:23:14;95979.03;;;18.78;100.00
37068;BME280;22982;42.848;25.468;2023-07-20T23:28:17;96002.31;;;18.94;100.00
37068;BME280;22982;42.848;25.468;2023-07-20T23:33:20;96002.84;;;18.52;100.00
37068;BME280;22982;42.848;25.468;2023-07-20T23:38:24;96005.81;;;18.67;100.00
37068;BME280;22982;42.848;25.468;2023-07-20T23:43:27;95995.22;;;18.57;100.00
37068;BME280;22982;42.848;25.468;2023-07-20T23:48:34;96017.25;;;18.67;100.00
37068;BME280;22982;42.848;25.468;2023-07-20T23:53:44;96012.41;;;18.63;100.00
37068;BME280;22982;42.848;25.468;2023-07-20T23:58:47;96007.53;;;18.58;100.00
